Time;durP1;ratioP1;P1;durP2;ratioP2;P2;SDS_P1;SDS_P2;PMS_P1;PMS_P2;Temp;Humidity;BMP_temperature;BMP_pressure;BME280_temperature;BME280_humidity;BME280_pressure;Samples;Min_cycle;Max_cycle;Signal;HPM_P1;HPM_P2
2022/04/28 00:02:11;;;;;;;15.32;4.38;;;;;;;;;;5112736;27;21534;-66
2022/04/28 00:04:38;;;;;;;13.77;4.20;;;;;;;;;;5116343;27;20031;-66
2022/04/28 00:07:04;;;;;;;12.75;3.67;;;;;;;;;;5112286;27;21825;-66
2022/04/28 00:09:30;;;;;;;11.32;4.22;;;;;;;;;;5115253;27;20138;-66
2022/04/28 00:11:56;;;;;;;10.38;4.03;;;;;;;;;;5113322;27;20051;-66
2022/04/28 00:14:22;;;;;;;16.67;5.72;;;;;;;;;;5116322;27;20486;-66
2022/04/28 00:16:49;;;;;;;16.13;3.50;;;;;;;;;;5090061;28;20407;-66
2022/04/28 00:19:15;;;;;;;11.68;3.65;;;;;;;;;;5097805;28;20063;-66
2022/04/28 00:21:41;;;;;;;9.02;3.13;;;;;;;;;;5100791;28;20111;-66
2022/04/28 00:24:07;;;;;;;12.63;3.00;;;;;;;;;;5093732;28;20043;-66
2022/04/28 00:26:34;;;;;;;14.40;3.33;;;;;;;;;;5091092;28;20040;-66
2022/04/28 00:29:00;;;;;;;11.00;3.33;;;;;;;;;;5092871;28;20040;-66
2022/04/28 00:31:26;;;;;;;13.80;3.17;;;;;;;;;;5094927;28;20131;-65
2022/04/28 00:33:52;;;;;;;13.75;3.20;;;;;;;;;;5097058;28;20056;-66
2022/04/28 00:36:18;;;;;;;15.30;3.33;;;;;;;;;;5088125;28;20043;-66
2022/04/28 00:38:44;;;;;;;11.57;2.72;;;;;;;;;;5091918;28;20440;-66
2022/04/28 00:41:10;;;;;;;8.57;2.80;;;;;;;;;;5087678;28;20044;-66
2022/04/28 00:43:51;;;;;;;12.25;3.33;;;;;;;;;;5088053;28;20044;-66
2022/04/28 00:46:18;;;;;;;13.07;3.15;;;;;;;;;;5090547;28;20379;-66
2022/04/28 00:51:31;;;;;;;12.88;3.03;;;;;;;;;;5093868;28;20039;-66
2022/04/28 00:53:58;;;;;;;11.20;3.42;;;;;;;;;;5095276;28;20051;-66
2022/04/28 00:56:25;;;;;;;11.32;3.38;;;;;;;;;;5098873;28;20496;-66
2022/04/28 00:58:51;;;;;;;16.45;3.63;;;;;;;;;;5094643;28;20448;-66
2022/04/28 01:01:17;;;;;;;10.70;3.58;;;;;;;;;;5086923;28;20119;-66
2022/04/28 01:03:46;;;;;;;11.30;3.15;;;;;;;;;;5084724;28;20075;-65
2022/04/28 01:06:12;;;;;;;10.88;4.10;;;;;;;;;;5087597;28;20052;-66
2022/04/28 01:08:39;;;;;;;11.60;3.15;;;;;;;;;;5087250;28;20072;-66
2022/04/28 01:11:06;;;;;;;11.20;3.42;;;;;;;;;;5089296;28;20036;-66
2022/04/28 01:13:32;;;;;;;11.85;3.83;;;;;;;;;;5088901;28;20049;-66
2022/04/28 01:15:58;;;;;;;13.93;4.05;;;;;;;;;;5090443;28;20059;-66
2022/04/28 01:18:24;;;;;;;12.00;3.80;;;;;;;;;;5111908;28;20394;-66
2022/04/28 01:20:51;;;;;;;13.25;4.60;;;;;;;;;;5108091;28;21322;-66
2022/04/28 01:23:18;;;;;;;13.05;4.03;;;;;;;;;;5080355;28;20056;-65
2022/04/28 01:25:44;;;;;;;14.90;4.05;;;;;;;;;;5092689;28;20044;-66
2022/04/28 01:28:11;;;;;;;12.65;4.50;;;;;;;;;;5113833;28;20051;-66
2022/04/28 01:30:37;;;;;;;17.55;4.65;;;;;;;;;;5093022;28;20170;-66
2022/04/28 01:33:05;;;;;;;12.55;4.55;;;;;;;;;;5115260;28;20440;-66
2022/04/28 01:35:31;;;;;;;13.40;4.47;;;;;;;;;;5110038;28;20506;-66
2022/04/28 01:37:57;;;;;;;13.63;4.53;;;;;;;;;;5118077;28;20058;-66
2022/04/28 01:40:24;;;;;;;16.65;4.50;;;;;;;;;;5120118;28;20035;-66
2022/04/28 01:42:50;;;;;;;19.67;4.88;;;;;;;;;;5102468;28;20126;-64
2022/04/28 01:45:17;;;;;;;13.35;4.05;;;;;;;;;;5116084;28;20555;-66
2022/04/28 01:47:43;;;;;;;16.35;4.80;;;;;;;;;;5115625;28;20119;-66
2022/04/28 01:50:10;;;;;;;12.00;3.45;;;;;;;;;;5113574;28;20114;-66
2022/04/28 01:55:22;;;;;;;14.20;2.83;;;;;;;;;;5109881;28;20047;-66
2022/04/28 01:57:49;;;;;;;18.60;4.00;;;;;;;;;;5110435;28;20054;-66
2022/04/28 02:00:15;;;;;;;11.40;4.38;;;;;;;;;;5090152;28;20479;-66
2022/04/28 02:02:42;;;;;;;13.05;4.68;;;;;;;;;;5111627;28;20123;-66
2022/04/28 02:05:09;;;;;;;14.02;4.68;;;;;;;;;;5109843;28;20057;-66
2022/04/28 02:07:35;;;;;;;13.38;4.10;;;;;;;;;;5091238;28;20044;-66
2022/04/28 02:10:03;;;;;;;10.73;4.28;;;;;;;;;;5109606;28;20097;-66
2022/04/28 02:12:29;;;;;;;12.27;3.72;;;;;;;;;;5101480;28;20031;-66
2022/04/28 02:14:55;;;;;;;16.35;3.90;;;;;;;;;;5100882;28;20052;-66
2022/04/28 02:17:22;;;;;;;13.55;3.67;;;;;;;;;;5109668;28;20051;-66
2022/04/28 02:19:49;;;;;;;11.98;4.15;;;;;;;;;;5109042;28;20506;-66
2022/04/28 02:22:15;;;;;;;12.60;3.72;;;;;;;;;;5109384;28;20035;-66
2022/04/28 02:24:42;;;;;;;13.48;3.78;;;;;;;;;;5114120;27;20122;-66
2022/04/28 02:27:08;;;;;;;7.85;3.35;;;;;;;;;;5093187;28;20402;-66
2022/04/28 02:29:35;;;;;;;9.90;3.63;;;;;;;;;;5113308;28;20027;-66
2022/04/28 02:32:01;;;;;;;11.65;4.15;;;;;;;;;;5113265;27;20364;-66
2022/04/28 02:34:27;;;;;;;10.93;3.03;;;;;;;;;;5094717;28;20044;-66
2022/04/28 02:36:53;;;;;;;11.65;3.75;;;;;;;;;;5095806;27;20069;-66
2022/04/28 02:39:20;;;;;;;10.63;3.50;;;;;;;;;;5120744;27;20031;-66
2022/04/28 02:41:47;;;;;;;9.82;3.65;;;;;;;;;;5121393;27;20046;-65
2022/04/28 02:44:13;;;;;;;16.38;4.30;;;;;;;;;;5113622;27;20443;-65
2022/04/28 02:46:42;;;;;;;11.85;3.80;;;;;;;;;;5114648;27;20097;-66
2022/04/28 02:49:09;;;;;;;9.43;3.55;;;;;;;;;;5114664;27;20042;-66
2022/04/28 02:51:35;;;;;;;8.95;4.13;;;;;;;;;;5111995;27;20324;-66
2022/04/28 02:54:01;;;;;;;12.38;4.00;;;;;;;;;;5120030;27;20569;-65
2022/04/28 02:56:27;;;;;;;11.70;4.43;;;;;;;;;;5121255;27;20095;-65
2022/04/28 02:58:54;;;;;;;9.77;3.78;;;;;;;;;;5107771;27;20051;-66
2022/04/28 03:01:20;;;;;;;12.93;4.60;;;;;;;;;;5109027;27;20440;-66
2022/04/28 03:03:47;;;;;;;8.50;3.97;;;;;;;;;;5112718;27;20395;-66
2022/04/28 03:11:42;;;;;;;12.02;4.22;;;;;;;;;;5093820;27;20055;-66
2022/04/28 03:14:10;;;;;;;17.75;5.40;;;;;;;;;;5099591;27;20051;-66
2022/04/28 03:16:36;;;;;;;14.68;5.25;;;;;;;;;;5106498;27;20055;-66
2022/04/28 03:19:03;;;;;;;10.52;4.32;;;;;;;;;;5092589;28;20139;-66
2022/04/28 03:21:30;;;;;;;11.68;4.43;;;;;;;;;;5098421;27;20067;-66
2022/04/28 03:23:56;;;;;;;11.45;4.90;;;;;;;;;;5106217;27;20055;-66
2022/04/28 03:26:22;;;;;;;12.57;4.78;;;;;;;;;;5092170;28;20043;-66
2022/04/28 03:28:48;;;;;;;12.82;4.50;;;;;;;;;;5094513;27;20053;-66
2022/04/28 03:31:14;;;;;;;13.63;4.80;;;;;;;;;;5110639;27;20085;-66
2022/04/28 03:33:41;;;;;;;14.75;5.00;;;;;;;;;;5097406;27;20050;-66
2022/04/28 03:36:50;;;;;;;11.25;5.07;;;;;;;;;;5126499;27;20103;-66
2022/04/28 03:38:53;;;;;;;12.50;4.43;;;;;;;;;;5122656;27;20421;-66
2022/04/28 03:41:19;;;;;;;13.45;5.00;;;;;;;;;;5101867;28;20039;-66
2022/04/28 03:43:45;;;;;;;12.73;4.82;;;;;;;;;;5114581;27;20366;-66
2022/04/28 03:46:12;;;;;;;15.30;5.47;;;;;;;;;;5096635;27;20043;-66
2022/04/28 03:48:38;;;;;;;13.93;5.50;;;;;;;;;;5114840;27;20031;-66
2022/04/28 03:51:05;;;;;;;16.60;5.57;;;;;;;;;;5112845;27;20036;-66
2022/04/28 03:53:31;;;;;;;11.32;5.32;;;;;;;;;;5111786;27;20122;-66
2022/04/28 03:55:58;;;;;;;14.13;4.97;;;;;;;;;;5095268;28;20043;-66
2022/04/28 03:58:26;;;;;;;13.65;5.88;;;;;;;;;;5112655;27;20050;-66
2022/04/28 04:00:53;;;;;;;10.23;5.47;;;;;;;;;;5112502;27;20051;-66
2022/04/28 04:03:20;;;;;;;13.75;5.50;;;;;;;;;;5095399;27;20044;-66
2022/04/28 04:05:47;;;;;;;12.75;5.80;;;;;;;;;;5115189;27;20378;-66
2022/04/28 04:08:13;;;;;;;12.05;5.00;;;;;;;;;;5118016;27;20047;-66
2022/04/28 04:10:39;;;;;;;10.07;5.40;;;;;;;;;;5118150;27;20043;-66
2022/04/28 04:13:06;;;;;;;10.38;5.15;;;;;;;;;;5123795;27;20051;-66
2022/04/28 04:15:32;;;;;;;11.07;5.18;;;;;;;;;;5091759;28;20040;-66
2022/04/28 04:17:59;;;;;;;12.65;4.97;;;;;;;;;;5112050;27;20102;-66
2022/04/28 04:20:26;;;;;;;9.65;5.10;;;;;;;;;;5092733;28;20084;-65
2022/04/28 04:22:53;;;;;;;13.07;5.78;;;;;;;;;;5113382;27;20059;-66
2022/04/28 04:25:20;;;;;;;13.65;6.32;;;;;;;;;;5096778;27;20126;-66
2022/04/28 04:27:46;;;;;;;12.70;4.88;;;;;;;;;;5120337;27;20086;-66
2022/04/28 04:32:57;;;;;;;15.63;5.07;;;;;;;;;;5113050;27;20048;-66
2022/04/28 04:35:24;;;;;;;14.07;5.32;;;;;;;;;;5093542;28;20073;-66
2022/04/28 04:37:50;;;;;;;13.82;5.18;;;;;;;;;;5109386;27;20035;-66
2022/04/28 04:40:16;;;;;;;15.30;5.93;;;;;;;;;;5107167;27;20051;-66
2022/04/28 04:42:43;;;;;;;18.35;5.00;;;;;;;;;;5110217;27;20043;-66
2022/04/28 04:45:09;;;;;;;10.43;4.72;;;;;;;;;;5123491;27;20044;-66
2022/04/28 04:47:36;;;;;;;15.10;5.70;;;;;;;;;;5095994;28;20092;-66
2022/04/28 04:50:04;;;;;;;21.95;6.50;;;;;;;;;;5115662;27;20335;-66
2022/04/28 04:52:30;;;;;;;18.70;5.90;;;;;;;;;;5098291;27;20054;-66
2022/04/28 04:54:56;;;;;;;16.27;5.65;;;;;;;;;;5109411;27;20531;-66
2022/04/28 04:57:22;;;;;;;22.52;6.47;;;;;;;;;;5115716;27;20123;-64
2022/04/28 04:59:48;;;;;;;16.75;6.00;;;;;;;;;;5119205;27;20039;-66
2022/04/28 05:02:15;;;;;;;17.83;4.13;;;;;;;;;;5111739;27;20088;-66
2022/04/28 05:04:41;;;;;;;13.68;2.97;;;;;;;;;;5118081;27;20039;-66
2022/04/28 05:07:07;;;;;;;16.38;3.10;;;;;;;;;;5115944;27;20043;-66
2022/04/28 05:09:33;;;;;;;12.73;3.78;;;;;;;;;;5114334;27;20377;-66
2022/04/28 05:12:00;;;;;;;12.00;3.78;;;;;;;;;;5114441;27;20157;-66
2022/04/28 05:14:26;;;;;;;13.32;3.35;;;;;;;;;;5086627;28;20325;-66
2022/04/28 05:16:53;;;;;;;16.52;3.85;;;;;;;;;;5091262;28;20067;-66
2022/04/28 05:19:19;;;;;;;16.48;3.22;;;;;;;;;;5090514;28;20040;-66
2022/04/28 05:21:45;;;;;;;10.48;3.05;;;;;;;;;;5110109;28;20135;-66
2022/04/28 05:24:11;;;;;;;17.85;3.08;;;;;;;;;;5111741;28;20085;-65
2022/04/28 05:26:38;;;;;;;16.33;3.65;;;;;;;;;;5119339;28;20088;-65
2022/04/28 05:29:04;;;;;;;11.40;3.13;;;;;;;;;;5093962;28;20047;-66
2022/04/28 05:31:30;;;;;;;12.18;4.18;;;;;;;;;;5088899;28;20136;-66
2022/04/28 05:33:56;;;;;;;10.00;2.53;;;;;;;;;;5107897;28;20126;-66
2022/04/28 05:36:24;;;;;;;10.98;2.72;;;;;;;;;;5087917;28;20460;-65
2022/04/28 05:38:50;;;;;;;11.15;3.30;;;;;;;;;;5105632;28;20039;-65
2022/04/28 05:41:17;;;;;;;9.95;3.55;;;;;;;;;;5109219;28;20117;-66
2022/04/28 05:46:28;;;;;;;9.15;3.00;;;;;;;;;;5102491;28;20104;-66
2022/04/28 05:48:54;;;;;;;13.25;3.20;;;;;;;;;;5117880;28;20040;-66
2022/04/28 05:51:20;;;;;;;13.18;3.10;;;;;;;;;;5095245;28;20080;-66
2022/04/28 05:53:46;;;;;;;14.25;3.25;;;;;;;;;;5100128;28;20138;-66
2022/04/28 05:56:13;;;;;;;13.70;3.17;;;;;;;;;;5088816;28;20108;-66
2022/04/28 05:58:40;;;;;;;12.23;3.05;;;;;;;;;;5108263;27;20039;-66
2022/04/28 06:01:06;;;;;;;9.20;3.15;;;;;;;;;;5110956;27;20130;-66
2022/04/28 06:03:33;;;;;;;13.70;3.35;;;;;;;;;;5118171;27;20050;-66
2022/04/28 06:05:59;;;;;;;12.35;3.65;;;;;;;;;;5115295;27;20047;-65
2022/04/28 06:08:25;;;;;;;12.82;3.30;;;;;;;;;;5097914;27;20032;-66
2022/04/28 06:10:51;;;;;;;12.93;2.70;;;;;;;;;;5112413;27;20077;-65
2022/04/28 06:13:18;;;;;;;12.23;2.85;;;;;;;;;;5110116;27;20042;-66
2022/04/28 06:15:44;;;;;;;16.88;4.22;;;;;;;;;;5110251;27;20121;-66
2022/04/28 06:18:10;;;;;;;13.20;2.95;;;;;;;;;;5123545;27;20055;-66
2022/04/28 06:20:36;;;;;;;8.52;2.53;;;;;;;;;;5107237;27;20085;-65
2022/04/28 06:23:02;;;;;;;17.00;2.80;;;;;;;;;;5096658;27;20051;-65
2022/04/28 06:25:30;;;;;;;10.20;2.80;;;;;;;;;;5116520;27;20084;-65
2022/04/28 06:27:56;;;;;;;8.65;2.28;;;;;;;;;;5088578;27;20529;-69
2022/04/28 06:30:22;;;;;;;12.02;2.20;;;;;;;;;;5089401;28;20487;-65
2022/04/28 06:32:49;;;;;;;10.75;2.63;;;;;;;;;;5108782;27;20894;-65
2022/04/28 06:35:16;;;;;;;11.15;2.50;;;;;;;;;;5091013;28;20040;-65
2022/04/28 06:37:42;;;;;;;10.63;3.17;;;;;;;;;;5108871;27;20046;-65
2022/04/28 06:40:11;;;;;;;13.18;2.92;;;;;;;;;;5090920;28;20072;-65
2022/04/28 06:42:39;;;;;;;12.45;2.90;;;;;;;;;;5108029;27;20047;-65
2022/04/28 06:45:06;;;;;;;16.83;3.40;;;;;;;;;;5107848;27;20040;-65
2022/04/28 06:47:32;;;;;;;7.03;2.85;;;;;;;;;;5087223;28;20730;-65
2022/04/28 06:49:58;;;;;;;14.70;2.90;;;;;;;;;;5103919;27;20483;-65
2022/04/28 06:52:24;;;;;;;9.93;1.80;;;;;;;;;;5104621;27;20053;-65
2022/04/28 06:54:50;;;;;;;10.13;2.40;;;;;;;;;;5111708;27;20040;-65
2022/04/28 06:57:17;;;;;;;10.82;2.38;;;;;;;;;;5085115;27;20043;-65
2022/04/28 06:59:43;;;;;;;7.95;1.98;;;;;;;;;;5087231;28;21247;-66
2022/04/28 07:02:09;;;;;;;14.95;2.20;;;;;;;;;;5106184;27;20047;-65
2022/04/28 07:04:35;;;;;;;10.00;2.33;;;;;;;;;;5105092;27;20063;-65
2022/04/28 07:07:02;;;;;;;12.88;2.47;;;;;;;;;;5084850;27;20127;-65
2022/04/28 07:09:28;;;;;;;10.07;2.20;;;;;;;;;;5108216;27;20384;-67
2022/04/28 07:11:54;;;;;;;7.70;1.67;;;;;;;;;;5116687;27;20049;-66
2022/04/28 07:14:20;;;;;;;7.47;2.17;;;;;;;;;;5116758;27;20039;-70
2022/04/28 07:16:46;;;;;;;10.98;2.33;;;;;;;;;;5121676;27;20591;-65
2022/04/28 07:19:13;;;;;;;12.07;2.17;;;;;;;;;;5086468;28;20431;-66
2022/04/28 07:21:39;;;;;;;11.52;2.30;;;;;;;;;;5086739;28;20047;-66
2022/04/28 07:24:05;;;;;;;12.13;2.30;;;;;;;;;;5088983;28;20048;-65
2022/04/28 07:26:31;;;;;;;21.85;2.75;;;;;;;;;;5091660;28;20047;-65
2022/04/28 07:28:57;;;;;;;30.15;3.83;;;;;;;;;;5090511;28;20055;-65
2022/04/28 07:31:24;;;;;;;11.52;2.67;;;;;;;;;;5091642;28;20044;-66
2022/04/28 07:33:50;;;;;;;9.30;2.15;;;;;;;;;;5090541;28;20123;-65
2022/04/28 07:36:16;;;;;;;15.48;2.30;;;;;;;;;;5089176;28;20047;-65
2022/04/28 07:38:42;;;;;;;20.35;2.55;;;;;;;;;;5087947;28;20039;-67
2022/04/28 07:41:09;;;;;;;13.02;2.35;;;;;;;;;;5117135;27;20044;-65
2022/04/28 07:43:35;;;;;;;8.23;1.83;;;;;;;;;;5088253;28;20047;-65
2022/04/28 07:46:01;;;;;;;12.32;2.20;;;;;;;;;;5089009;28;20044;-65
2022/04/28 07:48:28;;;;;;;9.77;2.20;;;;;;;;;;5090484;28;20418;-65
2022/04/28 07:50:54;;;;;;;9.50;2.20;;;;;;;;;;5090391;28;20048;-65
2022/04/28 07:53:21;;;;;;;14.88;3.00;;;;;;;;;;5086079;28;20258;-65
2022/04/28 07:56:10;;;;;;;21.30;2.65;;;;;;;;;;5089643;28;20373;-65
2022/04/28 07:58:34;;;;;;;15.30;3.00;;;;;;;;;;5088889;28;20543;-66
2022/04/28 08:01:01;;;;;;;13.35;2.55;;;;;;;;;;5089550;28;20051;-65
2022/04/28 08:03:27;;;;;;;9.93;2.83;;;;;;;;;;5091214;28;20050;-66
2022/04/28 08:05:54;;;;;;;12.90;2.53;;;;;;;;;;5086678;28;20043;-66
2022/04/28 08:08:20;;;;;;;13.77;3.17;;;;;;;;;;5094495;28;20391;-66
2022/04/28 08:10:47;;;;;;;16.15;2.40;;;;;;;;;;5089596;28;20051;-66
2022/04/28 08:13:13;;;;;;;11.95;2.92;;;;;;;;;;5089795;28;20040;-66
2022/04/28 08:15:39;;;;;;;14.93;3.10;;;;;;;;;;5102633;27;20584;-75
2022/04/28 08:18:06;;;;;;;13.10;2.72;;;;;;;;;;5109913;27;20043;-66
2022/04/28 08:20:32;;;;;;;17.85;5.40;;;;;;;;;;5124006;27;20039;-66
2022/04/28 08:22:58;;;;;;;12.63;2.45;;;;;;;;;;5107144;27;20032;-66
2022/04/28 08:25:24;;;;;;;18.38;2.47;;;;;;;;;;5118178;27;20210;-66
2022/04/28 08:27:50;;;;;;;13.73;2.22;;;;;;;;;;5116444;27;20460;-65
2022/04/28 08:30:16;;;;;;;7.75;2.13;;;;;;;;;;5116524;27;20043;-65
2022/04/28 08:32:43;;;;;;;12.98;2.15;;;;;;;;;;5107463;27;20054;-65
2022/04/28 08:35:09;;;;;;;7.68;1.63;;;;;;;;;;5108408;27;20128;-66
2022/04/28 08:37:36;;;;;;;14.40;2.65;;;;;;;;;;5100013;28;20390;-66
2022/04/28 08:40:03;;;;;;;18.77;3.10;;;;;;;;;;5109471;27;20126;-67
2022/04/28 08:42:30;;;;;;;13.65;2.35;;;;;;;;;;5114631;27;20142;-67
2022/04/28 08:44:59;;;;;;;7.90;2.15;;;;;;;;;;5098328;27;20458;-66
2022/04/28 08:47:25;;;;;;;8.75;2.10;;;;;;;;;;5112390;27;20475;-66
2022/04/28 08:49:52;;;;;;;11.68;2.35;;;;;;;;;;5115479;27;20066;-66
2022/04/28 08:52:19;;;;;;;10.70;1.95;;;;;;;;;;5113221;27;20135;-66
2022/04/28 08:54:46;;;;;;;11.77;2.60;;;;;;;;;;5110071;27;20582;-66
2022/04/28 08:57:13;;;;;;;8.10;2.33;;;;;;;;;;5110592;27;20489;-66
2022/04/28 08:59:40;;;;;;;18.42;2.50;;;;;;;;;;5090535;28;20119;-66
2022/04/28 09:02:07;;;;;;;14.27;3.17;;;;;;;;;;5107784;28;20065;-66
2022/04/28 09:04:33;;;;;;;10.52;3.03;;;;;;;;;;5108732;28;20429;-66
2022/04/28 09:07:00;;;;;;;13.27;3.00;;;;;;;;;;5107385;27;20131;-66
2022/04/28 09:09:27;;;;;;;13.27;2.78;;;;;;;;;;5110249;27;20043;-66
2022/04/28 09:11:57;;;;;;;11.20;3.15;;;;;;;;;;5110452;27;20071;-65
2022/04/28 09:14:24;;;;;;;14.40;3.10;;;;;;;;;;5116196;27;20051;-66
2022/04/28 09:17:08;;;;;;;15.38;2.75;;;;;;;;;;5091428;28;20077;-66
2022/04/28 09:19:36;;;;;;;19.85;3.35;;;;;;;;;;5106860;27;20108;-66
2022/04/28 09:22:06;;;;;;;14.18;3.28;;;;;;;;;;5108103;28;20050;-66
2022/04/28 09:24:33;;;;;;;10.43;2.80;;;;;;;;;;5112864;28;20118;-66
2022/04/28 09:26:59;;;;;;;17.88;3.55;;;;;;;;;;5111175;28;20039;-66
2022/04/28 09:29:29;;;;;;;13.40;2.83;;;;;;;;;;5110971;28;20032;-66
2022/04/28 09:31:56;;;;;;;9.60;2.88;;;;;;;;;;5109363;28;20039;-66
2022/04/28 09:34:23;;;;;;;11.35;2.65;;;;;;;;;;5093583;28;20411;-66
2022/04/28 09:36:50;;;;;;;11.30;2.85;;;;;;;;;;5112489;27;20073;-67
2022/04/28 09:42:29;;;;;;;16.08;2.83;;;;;;;;;;5113569;27;20036;-66
2022/04/28 09:44:51;;;;;;;13.40;3.13;;;;;;;;;;5112885;27;20782;-66
2022/04/28 09:47:19;;;;;;;10.63;2.33;;;;;;;;;;5113024;27;20483;-66
2022/04/28 09:49:52;;;;;;;12.88;3.28;;;;;;;;;;5091506;27;20048;-66
2022/04/28 09:52:24;;;;;;;15.38;3.25;;;;;;;;;;5111341;27;20035;-66
2022/04/28 09:54:51;;;;;;;16.20;4.15;;;;;;;;;;5095443;27;20058;-66
2022/04/28 09:57:20;;;;;;;14.25;3.08;;;;;;;;;;5093908;28;20054;-66
2022/04/28 09:59:47;;;;;;;23.48;3.85;;;;;;;;;;5113508;27;20202;-66
2022/04/28 10:02:16;;;;;;;15.77;2.90;;;;;;;;;;5109522;27;20036;-66
2022/04/28 10:04:43;;;;;;;11.75;2.60;;;;;;;;;;5109358;28;20035;-66
2022/04/28 10:07:10;;;;;;;19.50;3.15;;;;;;;;;;5109499;27;20743;-66
2022/04/28 10:09:37;;;;;;;13.38;2.78;;;;;;;;;;5111972;27;20051;-66
2022/04/28 10:12:06;;;;;;;21.70;3.70;;;;;;;;;;5113194;27;20435;-66
2022/04/28 10:14:33;;;;;;;13.30;3.05;;;;;;;;;;5113408;27;20048;-66
2022/04/28 10:17:00;;;;;;;13.48;2.42;;;;;;;;;;5112435;27;20044;-66
2022/04/28 10:19:30;;;;;;;10.48;2.50;;;;;;;;;;5114103;27;20051;-66
2022/04/28 10:22:03;;;;;;;12.60;2.63;;;;;;;;;;5107157;27;20074;-66
2022/04/28 10:32:55;;;;;;;16.48;3.08;;;;;;;;;;5110544;27;20047;-66
2022/04/28 10:35:33;;;;;;;11.98;2.30;;;;;;;;;;5125029;27;20566;-66
2022/04/28 10:38:07;;;;;;;12.77;2.45;;;;;;;;;;5119938;27;20051;-66
2022/04/28 10:40:44;;;;;;;13.93;2.42;;;;;;;;;;5111450;27;20507;-66
2022/04/28 10:43:21;;;;;;;13.70;2.58;;;;;;;;;;5091040;28;20366;-66
2022/04/28 10:45:49;;;;;;;14.32;3.42;;;;;;;;;;5109207;27;20065;-65
2022/04/28 10:48:28;;;;;;;12.25;2.97;;;;;;;;;;5092285;27;20050;-65
2022/04/28 10:51:02;;;;;;;11.40;2.58;;;;;;;;;;5107337;28;20560;-65
2022/04/28 10:53:28;;;;;;;14.00;2.88;;;;;;;;;;5090456;27;20491;-65
2022/04/28 10:55:55;;;;;;;15.18;3.67;;;;;;;;;;5112157;27;20046;-66
2022/04/28 10:58:24;;;;;;;11.65;2.78;;;;;;;;;;5110627;27;20043;-66
2022/04/28 11:00:52;;;;;;;15.35;2.83;;;;;;;;;;5121211;27;20036;-66
2022/04/28 11:03:37;;;;;;;14.13;3.35;;;;;;;;;;5111622;27;20498;-66
2022/04/28 11:06:16;;;;;;;15.43;3.10;;;;;;;;;;5093086;27;20081;-66
2022/04/28 11:08:45;;;;;;;15.32;2.42;;;;;;;;;;5109471;27;20050;-66
2022/04/28 11:11:12;;;;;;;16.05;2.65;;;;;;;;;;5095645;27;20046;-66
2022/04/28 11:13:40;;;;;;;7.20;2.35;;;;;;;;;;5107457;27;20081;-66
2022/04/28 11:16:08;;;;;;;11.68;2.30;;;;;;;;;;5113940;27;20130;-66
2022/04/28 11:18:35;;;;;;;9.52;2.28;;;;;;;;;;5103700;27;20047;-73
2022/04/28 11:21:02;;;;;;;14.95;2.50;;;;;;;;;;5109729;27;20039;-66
2022/04/28 11:23:35;;;;;;;13.32;2.85;;;;;;;;;;5110274;27;20100;-65
2022/04/28 11:26:02;;;;;;;10.70;2.13;;;;;;;;;;5092667;27;20044;-66
2022/04/28 11:28:30;;;;;;;10.35;2.42;;;;;;;;;;5092821;28;20359;-66
2022/04/28 11:30:57;;;;;;;9.55;2.38;;;;;;;;;;5111133;27;20109;-66
2022/04/28 11:33:24;;;;;;;13.30;2.80;;;;;;;;;;5111053;27;20483;-66
2022/04/28 11:35:50;;;;;;;13.32;2.30;;;;;;;;;;5109051;27;20101;-66
2022/04/28 12:31:32;;;;;;;15.00;2.60;;;;;;;;;;5117141;27;20604;-64
2022/04/28 12:33:59;;;;;;;13.95;3.15;;;;;;;;;;5076263;28;20075;-64
2022/04/28 12:36:25;;;;;;;14.23;2.97;;;;;;;;;;5074160;28;20044;-65
2022/04/28 12:38:53;;;;;;;10.10;2.58;;;;;;;;;;5072307;28;20066;-65
2022/04/28 12:41:23;;;;;;;9.20;2.65;;;;;;;;;;5080055;28;20040;-65
2022/04/28 12:43:50;;;;;;;10.27;2.92;;;;;;;;;;5093191;28;20394;-64
2022/04/28 12:46:22;;;;;;;14.55;3.47;;;;;;;;;;5097341;28;20384;-65
2022/04/28 12:48:57;;;;;;;16.38;2.30;;;;;;;;;;5091624;28;20410;-65
2022/04/28 12:51:24;;;;;;;16.27;3.15;;;;;;;;;;5101078;28;20054;-64
2022/04/28 12:53:51;;;;;;;17.77;3.13;;;;;;;;;;5095948;28;20119;-64
2022/04/28 12:56:27;;;;;;;11.73;2.40;;;;;;;;;;5077955;28;20395;-65
2022/04/28 12:58:56;;;;;;;13.60;2.53;;;;;;;;;;5100227;28;20123;-64
2022/04/28 13:01:22;;;;;;;8.48;2.50;;;;;;;;;;5075937;28;20048;-64
2022/04/28 13:03:57;;;;;;;10.30;3.22;;;;;;;;;;5100548;28;20048;-64
2022/04/28 13:06:27;;;;;;;8.88;2.83;;;;;;;;;;5078429;28;20059;-66
2022/04/28 13:08:54;;;;;;;12.48;3.15;;;;;;;;;;5093152;28;20116;-66
2022/04/28 13:11:25;;;;;;;15.45;2.88;;;;;;;;;;5089299;28;20492;-66
2022/04/28 13:13:51;;;;;;;20.33;2.67;;;;;;;;;;5092155;28;20043;-66
2022/04/28 13:16:18;;;;;;;11.18;2.55;;;;;;;;;;5100878;28;20119;-66
2022/04/28 13:18:44;;;;;;;11.15;2.58;;;;;;;;;;5075896;28;20491;-67
2022/04/28 13:21:12;;;;;;;8.63;2.40;;;;;;;;;;5091325;28;20344;-67
2022/04/28 13:23:39;;;;;;;9.80;2.17;;;;;;;;;;5101852;28;20056;-66
2022/04/28 13:26:05;;;;;;;7.57;1.95;;;;;;;;;;5094464;28;20514;-66
2022/04/28 13:28:31;;;;;;;11.15;2.50;;;;;;;;;;5098807;28;20048;-67
2022/04/28 13:30:58;;;;;;;9.52;2.20;;;;;;;;;;5074179;28;20127;-66
2022/04/28 13:33:24;;;;;;;7.07;1.83;;;;;;;;;;5079227;28;20042;-66
2022/04/28 13:35:50;;;;;;;9.55;2.17;;;;;;;;;;5077430;28;20138;-67
2022/04/28 13:38:16;;;;;;;11.68;2.55;;;;;;;;;;5076910;28;20036;-67
2022/04/28 13:40:43;;;;;;;12.80;2.03;;;;;;;;;;5098527;28;20050;-67
2022/04/28 13:43:09;;;;;;;14.10;2.60;;;;;;;;;;5060510;28;20622;-67
2022/04/28 13:45:36;;;;;;;11.70;2.30;;;;;;;;;;5084459;28;20039;-67
2022/04/28 13:48:02;;;;;;;12.80;2.38;;;;;;;;;;5074506;28;20075;-67
2022/04/28 13:50:28;;;;;;;8.70;1.90;;;;;;;;;;5079713;28;20048;-66
2022/04/28 13:52:54;;;;;;;13.60;2.38;;;;;;;;;;5058249;28;20455;-67
2022/04/28 13:55:21;;;;;;;12.65;2.30;;;;;;;;;;5081754;28;20052;-66
2022/04/28 13:57:47;;;;;;;12.45;2.60;;;;;;;;;;5079560;28;20032;-67
2022/04/28 14:00:15;;;;;;;8.90;2.72;;;;;;;;;;5085575;28;20079;-67
2022/04/28 14:02:41;;;;;;;14.80;2.15;;;;;;;;;;5077720;28;20119;-66
2022/04/28 14:05:08;;;;;;;9.32;2.33;;;;;;;;;;5074938;28;20052;-67
2022/04/28 14:07:36;;;;;;;11.80;2.10;;;;;;;;;;5079902;28;20097;-67
2022/04/28 14:10:05;;;;;;;9.48;2.30;;;;;;;;;;5074266;28;20156;-66
2022/04/28 14:12:32;;;;;;;9.70;2.17;;;;;;;;;;5066279;28;20052;-67
2022/04/28 14:14:58;;;;;;;9.82;2.72;;;;;;;;;;5059315;28;20184;-67
2022/04/28 14:17:24;;;;;;;12.02;3.33;;;;;;;;;;5075321;28;20169;-67
2022/04/28 14:19:51;;;;;;;10.35;2.72;;;;;;;;;;5055659;28;20036;-67
2022/04/28 14:22:18;;;;;;;8.02;2.25;;;;;;;;;;5076043;28;20063;-67
2022/04/28 14:24:45;;;;;;;13.52;2.70;;;;;;;;;;5074636;28;20047;-67
2022/04/28 14:27:12;;;;;;;8.43;2.40;;;;;;;;;;5075094;28;20043;-67
2022/04/28 14:29:39;;;;;;;10.13;2.65;;;;;;;;;;5081973;28;20139;-67
2022/04/28 14:32:06;;;;;;;8.45;2.45;;;;;;;;;;5060676;28;20060;-67
2022/04/28 14:34:32;;;;;;;16.20;2.38;;;;;;;;;;5085205;28;20136;-67
2022/04/28 14:36:58;;;;;;;10.27;2.40;;;;;;;;;;5058746;28;20082;-67
2022/04/28 14:39:25;;;;;;;8.27;2.67;;;;;;;;;;5060885;28;20046;-67
2022/04/28 14:41:53;;;;;;;10.85;2.90;;;;;;;;;;5081247;28;20089;-67
2022/04/28 14:44:19;;;;;;;8.30;2.92;;;;;;;;;;5084219;28;20040;-67
2022/04/28 14:46:45;;;;;;;12.90;2.60;;;;;;;;;;5082067;28;20040;-67
2022/04/28 14:54:41;;;;;;;11.63;2.78;;;;;;;;;;5058276;28;20408;-67
2022/04/28 14:57:08;;;;;;;9.10;2.70;;;;;;;;;;5077571;28;20037;-67
2022/04/28 14:59:34;;;;;;;9.98;2.70;;;;;;;;;;5066454;28;20496;-67
2022/04/28 15:02:01;;;;;;;13.90;2.88;;;;;;;;;;5077927;28;20078;-67
2022/04/28 15:04:27;;;;;;;10.15;2.05;;;;;;;;;;5076469;28;20048;-67
2022/04/28 15:06:53;;;;;;;10.48;2.03;;;;;;;;;;5083985;28;20044;-67
2022/04/28 15:09:19;;;;;;;15.98;2.72;;;;;;;;;;5081450;28;20411;-67
2022/04/28 15:11:46;;;;;;;10.10;2.10;;;;;;;;;;5079523;28;20036;-67
2022/04/28 15:14:13;;;;;;;12.15;2.38;;;;;;;;;;5078626;28;20111;-67
2022/04/28 15:16:40;;;;;;;12.82;2.22;;;;;;;;;;5078526;28;20420;-67
2022/04/28 15:19:06;;;;;;;7.97;2.22;;;;;;;;;;5062416;28;20048;-67
2022/04/28 15:21:32;;;;;;;10.00;2.47;;;;;;;;;;5079500;28;20124;-67
2022/04/28 15:23:58;;;;;;;8.85;2.08;;;;;;;;;;5055352;28;20137;-67
2022/04/28 15:26:25;;;;;;;7.72;1.90;;;;;;;;;;5083384;28;20482;-67
2022/04/28 15:28:51;;;;;;;13.15;2.60;;;;;;;;;;5060582;28;20045;-67
2022/04/28 15:31:18;;;;;;;9.70;2.35;;;;;;;;;;5081289;28;20060;-67
2022/04/28 15:33:45;;;;;;;9.43;1.95;;;;;;;;;;5055714;28;20211;-67
2022/04/28 15:36:11;;;;;;;8.68;2.35;;;;;;;;;;5086400;28;20040;-67
2022/04/28 15:38:38;;;;;;;10.75;2.72;;;;;;;;;;5084539;28;20037;-67
2022/04/28 15:41:04;;;;;;;11.05;2.53;;;;;;;;;;5079071;28;20127;-67
2022/04/28 15:43:31;;;;;;;8.20;2.45;;;;;;;;;;5078788;28;20047;-67
2022/04/28 15:45:57;;;;;;;9.93;2.15;;;;;;;;;;5077984;28;20422;-67
2022/04/28 15:48:24;;;;;;;10.98;2.13;;;;;;;;;;5079680;28;20387;-66
2022/04/28 15:50:50;;;;;;;11.63;2.28;;;;;;;;;;5074805;28;20048;-66
2022/04/28 15:53:16;;;;;;;5.85;1.92;;;;;;;;;;5059152;28;20068;-67
2022/04/28 15:55:42;;;;;;;9.65;1.52;;;;;;;;;;5074028;28;20152;-66
2022/04/28 15:58:09;;;;;;;11.10;1.83;;;;;;;;;;5083247;28;20052;-66
2022/04/28 16:00:35;;;;;;;9.18;2.10;;;;;;;;;;5055936;28;20055;-67